Time;durP1;ratioP1;P1;durP2;ratioP2;P2;SDS_P1;SDS_P2;PMS_P1;PMS_P2;Temp;Humidity;BMP_temperature;BMP_pressure;BME280_temperature;BME280_humidity;BME280_pressure;Samples;Min_cycle;Max_cycle;Signal;HPM_P1;HPM_P2
2022/10/19 00:01:16;;;;;;;;;;;;;;;17.22;48.55;101427.53;5075597;28;1249;-54
2022/10/19 00:03:42;;;;;;;;;;;;;;;17.03;47.37;101435.38;5076180;28;1142;-54
2022/10/19 00:06:11;;;;;;;;;;;;;;;18.23;47.37;101424.91;5075913;28;1142;-49
2022/10/19 00:08:37;;;;;;;;;;;;;;;17.40;48.33;101418.06;5076026;28;1198;-51
2022/10/19 00:11:02;;;;;;;;;;;;;;;17.12;47.50;101419.22;5075524;28;1901;-47
2022/10/19 00:13:28;;;;;;;;;;;;;;;16.92;46.94;101410.53;5075493;28;836;-49
2022/10/19 00:15:53;;;;;;;;;;;;;;;18.05;47.68;101416.03;5075357;28;1146;-49
2022/10/19 00:18:19;;;;;;;;;;;;;;;17.22;48.30;101402.81;5075807;28;1115;-51
2022/10/19 00:20:44;;;;;;;;;;;;;;;17.02;47.41;101404.28;5076000;28;1209;-51
2022/10/19 00:23:10;;;;;;;;;;;;;;;16.87;46.91;101406.88;5075844;28;1195;-49
2022/10/19 00:25:37;;;;;;;;;;;;;;;17.73;47.73;101403.16;5075081;28;859;-53
2022/10/19 00:28:02;;;;;;;;;;;;;;;17.04;47.93;101393.03;5075368;28;1107;-53
2022/10/19 00:30:28;;;;;;;;;;;;;;;16.96;46.85;101386.13;5075766;28;1980;-54
2022/10/19 00:32:53;;;;;;;;;;;;;;;16.79;46.41;101393.59;5075717;28;1189;-54
2022/10/19 00:35:19;;;;;;;;;;;;;;;17.96;47.16;101395.59;5061420;28;1225;-55
2022/10/19 00:37:44;;;;;;;;;;;;;;;17.14;47.87;101384.03;5072110;28;921;-55
2022/10/19 00:40:10;;;;;;;;;;;;;;;17.62;47.64;101371.19;5078759;28;1198;-55
2022/10/19 00:42:35;;;;;;;;;;;;;;;17.96;48.05;101379.09;5078844;28;1202;-55
2022/10/19 00:45:03;;;;;;;;;;;;;;;17.35;47.72;101369.38;5078907;28;1142;-55
2022/10/19 00:47:28;;;;;;;;;;;;;;;17.28;47.93;101371.53;5078717;28;1103;-54
2022/10/19 00:49:54;;;;;;;;;;;;;;;17.52;48.67;101354.66;5059477;28;940;-55
2022/10/19 00:52:20;;;;;;;;;;;;;;;17.17;47.97;101356.88;5061091;28;1930;-54
2022/10/19 00:54:45;;;;;;;;;;;;;;;17.05;46.83;101348.81;5078906;28;1103;-55
2022/10/19 00:57:11;;;;;;;;;;;;;;;17.55;47.92;101351.38;5060626;28;1182;-52
2022/10/19 00:59:36;;;;;;;;;;;;;;;16.95;48.02;101348.75;5060935;28;1214;-54
2022/10/19 01:02:02;;;;;;;;;;;;;;;16.93;47.06;101334.44;5060680;28;849;-53
2022/10/19 01:04:28;;;;;;;;;;;;;;;16.75;46.79;101349.38;5078747;28;1142;-52
2022/10/19 01:06:53;;;;;;;;;;;;;;;17.36;47.85;101349.06;5060686;28;1092;-51
2022/10/19 01:09:19;;;;;;;;;;;;;;;16.96;47.53;101349.56;5078461;28;1166;-53
2022/10/19 01:11:50;;;;;;;;;;;;;;;16.79;46.83;101349.66;5078573;28;1910;-52
2022/10/19 01:14:34;;;;;;;;;;;;;;;17.41;47.00;101342.75;5077991;28;1375;-53
2022/10/19 01:17:06;;;;;;;;;;;;;;;17.30;47.92;101333.59;5078286;28;1150;-54
2022/10/19 01:19:44;;;;;;;;;;;;;;;16.99;47.32;101332.56;5078507;28;1143;-53
2022/10/19 01:22:15;;;;;;;;;;;;;;;17.72;47.51;101330.00;5078300;28;1134;-53
2022/10/19 01:24:41;;;;;;;;;;;;;;;17.14;47.74;101329.09;5078061;28;1150;-53
2022/10/19 01:27:06;;;;;;;;;;;;;;;16.94;46.97;101325.09;5077903;28;1015;-54
2022/10/19 01:29:35;;;;;;;;;;;;;;;17.90;47.07;101320.44;5078171;28;1170;-53
2022/10/19 01:32:00;;;;;;;;;;;;;;;17.18;47.76;101308.22;5078196;28;1922;-54
2022/10/19 01:34:44;;;;;;;;;;;;;;;16.94;46.86;101314.09;5068648;28;1170;-53
2022/10/19 01:37:13;;;;;;;;;;;;;;;17.74;47.00;101308.56;5075674;28;1138;-51
2022/10/19 01:39:42;;;;;;;;;;;;;;;16.98;47.86;101315.25;5077756;28;1213;-51
2022/10/19 01:42:23;;;;;;;;;;;;;;;16.90;47.32;101312.97;5060497;28;1130;-50
2022/10/19 01:44:49;;;;;;;;;;;;;;;17.43;47.85;101313.06;5077441;28;1123;-53
2022/10/19 01:47:17;;;;;;;;;;;;;;;16.95;47.78;101304.78;5060105;28;1139;-53
2022/10/19 01:49:48;;;;;;;;;;;;;;;17.97;47.34;101300.97;5058951;28;1143;-52
2022/10/19 01:52:14;;;;;;;;;;;;;;;17.18;47.83;101294.50;5077801;28;1966;-52
2022/10/19 01:54:42;;;;;;;;;;;;;;;17.00;46.90;101293.84;5060098;28;1119;-53
2022/10/19 01:57:08;;;;;;;;;;;;;;;17.47;47.74;101286.69;5077664;28;1111;-54
2022/10/19 01:59:33;;;;;;;;;;;;;;;17.01;47.76;101291.91;5059681;28;1147;-53
2022/10/19 02:01:59;;;;;;;;;;;;;;;16.87;47.07;101286.84;5059806;28;1226;-54
2022/10/19 02:04:24;;;;;;;;;;;;;;;16.84;46.30;101289.28;5077839;28;1214;-53
2022/10/19 02:06:51;;;;;;;;;;;;;;;16.62;45.96;101281.13;5077614;28;1127;-54
2022/10/19 02:09:19;;;;;;;;;;;;;;;17.96;46.93;101285.53;5059204;28;1174;-54
2022/10/19 02:11:58;;;;;;;;;;;;;;;17.03;47.81;101278.75;5077570;28;1968;-54
2022/10/19 02:14:28;;;;;;;;;;;;;;;16.85;46.88;101271.72;5059288;28;1147;-54
2022/10/19 02:16:54;;;;;;;;;;;;;;;17.78;47.31;101279.41;5059229;28;1155;-54
2022/10/19 02:19:19;;;;;;;;;;;;;;;17.07;47.64;101269.72;5059096;28;1225;-52
2022/10/19 02:21:45;;;;;;;;;;;;;;;16.89;47.83;101272.88;5059526;28;1202;-52
2022/10/19 02:24:10;;;;;;;;;;;;;;;17.48;47.80;101273.78;5059695;28;1142;-51
2022/10/19 02:26:36;;;;;;;;;;;;;;;17.04;47.45;101281.22;5076796;28;1146;-52
2022/10/19 02:29:01;;;;;;;;;;;;;;;18.10;47.15;101275.69;5077206;28;1134;-51
2022/10/19 02:31:26;;;;;;;;;;;;;;;17.29;48.24;101274.22;5077152;28;1901;-51
2022/10/19 02:33:52;;;;;;;;;;;;;;;16.96;47.52;101265.25;5071923;28;1138;-52
2022/10/19 02:36:17;;;;;;;;;;;;;;;16.90;46.78;101264.38;5067840;28;1115;-51
2022/10/19 02:38:43;;;;;;;;;;;;;;;18.01;47.42;101266.31;5076631;28;1158;-53
2022/10/19 02:41:11;;;;;;;;;;;;;;;17.21;47.82;101266.50;5076472;28;1282;-54
2022/10/19 02:43:37;;;;;;;;;;;;;;;16.93;47.18;101263.03;5076390;28;1155;-53
2022/10/19 02:46:04;;;;;;;;;;;;;;;16.78;46.38;101269.19;5056020;28;2190;-52
2022/10/19 02:48:30;;;;;;;;;;;;;;;17.75;47.25;101263.47;5043273;28;1955;-53
2022/10/19 02:50:56;;;;;;;;;;;;;;;17.15;47.37;101267.56;5049731;28;2046;-53
2022/10/19 02:53:21;;;;;;;;;;;;;;;16.79;47.04;101259.88;5067644;28;1868;-55
2022/10/19 02:55:47;;;;;;;;;;;;;;;16.87;46.80;101264.88;5064172;28;2192;-54
2022/10/19 02:58:12;;;;;;;;;;;;;;;17.16;47.52;101261.78;5057977;28;1976;-55
2022/10/19 03:00:38;;;;;;;;;;;;;;;16.87;47.34;101259.38;5075017;28;1955;-54
2022/10/19 03:03:03;;;;;;;;;;;;;;;18.03;46.84;101261.34;5071453;28;1745;-55
2022/10/19 03:05:28;;;;;;;;;;;;;;;17.12;47.84;101248.84;5075489;28;1245;-55
2022/10/19 03:07:54;;;;;;;;;;;;;;;16.95;47.08;101247.09;5075605;28;1143;-55
2022/10/19 03:10:19;;;;;;;;;;;;;;;17.68;47.42;101253.78;5074565;28;1977;-56
2022/10/19 03:12:45;;;;;;;;;;;;;;;17.03;47.59;101249.34;5074726;28;1094;-55
2022/10/19 03:15:13;;;;;;;;;;;;;;;18.36;46.98;101247.38;5075011;28;885;-55
2022/10/19 03:17:39;;;;;;;;;;;;;;;15.40;54.27;101248.28;5075814;28;1167;-55
2022/10/19 03:20:04;;;;;;;;;;;;;;;15.88;51.09;101247.78;5076162;28;1472;-55
2022/10/19 03:22:30;;;;;;;;;;;;;;;17.54;49.72;101240.53;5075287;28;1135;-55
2022/10/19 03:24:55;;;;;;;;;;;;;;;16.85;49.40;101238.75;5064604;28;1111;-54
2022/10/19 03:27:21;;;;;;;;;;;;;;;17.39;49.55;101227.56;5070257;28;921;-55
2022/10/19 03:29:46;;;;;;;;;;;;;;;17.44;49.31;101229.50;5076284;28;1063;-55
2022/10/19 03:32:12;;;;;;;;;;;;;;;17.07;48.69;101230.44;5072202;28;2247;-55
2022/10/19 03:34:37;;;;;;;;;;;;;;;16.86;47.64;101235.75;5064826;28;1087;-55
2022/10/19 03:37:02;;;;;;;;;;;;;;;16.72;47.09;101229.06;5055729;28;1166;-55
2022/10/19 03:39:28;;;;;;;;;;;;;;;17.28;48.67;101225.88;5070602;28;897;-55
2022/10/19 03:41:53;;;;;;;;;;;;;;;16.90;47.98;101225.91;5075874;28;1210;-55
2022/10/19 03:44:19;;;;;;;;;;;;;;;18.28;47.97;101229.47;5063854;28;1249;-53
2022/10/19 03:46:44;;;;;;;;;;;;;;;17.52;48.98;101230.91;5071144;28;1119;-56
2022/10/19 03:49:09;;;;;;;;;;;;;;;17.19;48.00;101221.97;5068399;28;1507;-58
2022/10/19 03:51:35;;;;;;;;;;;;;;;16.97;47.30;101225.69;5070568;28;1972;-58
2022/10/19 03:54:04;;;;;;;;;;;;;;;18.01;48.45;101218.72;5075899;28;1122;-60
2022/10/19 03:56:30;;;;;;;;;;;;;;;17.23;48.63;101218.41;5075773;28;1313;-58
2022/10/19 03:58:55;;;;;;;;;;;;;;;17.00;47.76;101207.81;5072098;28;1129;-58
2022/10/19 04:01:25;;;;;;;;;;;;;;;18.23;48.02;101212.94;5055854;28;2251;-60
2022/10/19 04:03:53;;;;;;;;;;;;;;;17.22;48.60;101211.28;5071702;28;873;-57
2022/10/19 04:06:19;;;;;;;;;;;;;;;17.09;47.54;101211.75;5075722;28;1205;-57
2022/10/19 04:08:44;;;;;;;;;;;;;;;17.66;48.45;101210.06;5074877;28;1197;-57
2022/10/19 04:11:11;;;;;;;;;;;;;;;17.10;48.37;101208.72;5057233;28;1920;-56
2022/10/19 04:13:37;;;;;;;;;;;;;;;16.96;47.49;101206.69;5077658;28;1118;-56
2022/10/19 04:16:02;;;;;;;;;;;;;;;18.26;47.56;101212.41;5078770;28;1118;-55
2022/10/19 04:18:28;;;;;;;;;;;;;;;17.40;48.40;101207.22;5079354;28;1095;-57
2022/10/19 04:20:57;;;;;;;;;;;;;;;17.08;47.54;101201.84;5079031;28;1210;-57
2022/10/19 04:23:22;;;;;;;;;;;;;;;17.76;48.40;101203.75;5079043;28;1103;-57
2022/10/19 04:25:48;;;;;;;;;;;;;;;17.08;48.41;101210.91;5079161;28;1146;-57
2022/10/19 04:28:13;;;;;;;;;;;;;;;18.45;47.71;101213.53;5078933;28;968;-56
2022/10/19 04:30:38;;;;;;;;;;;;;;;15.98;54.49;101208.66;5079145;28;1905;-56
2022/10/19 04:33:04;;;;;;;;;;;;;;;16.12;52.23;101198.06;5078625;28;2345;-57
2022/10/19 04:35:29;;;;;;;;;;;;;;;16.61;49.00;101200.69;5079526;28;1186;-56
2022/10/19 04:37:55;;;;;;;;;;;;;;;17.33;50.13;101200.31;5079046;28;1154;-55
2022/10/19 04:40:20;;;;;;;;;;;;;;;16.85;49.17;101194.81;5078351;28;910;-55
2022/10/19 04:42:45;;;;;;;;;;;;;;;18.34;49.39;101192.59;5078969;28;1142;-56
2022/10/19 04:45:11;;;;;;;;;;;;;;;17.78;49.95;101201.56;5079135;28;1114;-56
2022/10/19 04:47:36;;;;;;;;;;;;;;;17.26;49.21;101190.41;5077257;28;1103;-55
2022/10/19 04:50:02;;;;;;;;;;;;;;;16.96;48.41;101191.06;5077615;28;1373;-54
2022/10/19 04:52:27;;;;;;;;;;;;;;;17.80;49.18;101185.63;5078616;28;1905;-54
2022/10/19 04:54:53;;;;;;;;;;;;;;;17.22;49.04;101188.44;5078734;28;1118;-54
2022/10/19 04:57:18;;;;;;;;;;;;;;;16.98;47.85;101194.38;5078718;28;1162;-56
2022/10/19 04:59:43;;;;;;;;;;;;;;;17.79;48.57;101193.06;5078284;28;1122;-56
2022/10/19 05:02:09;;;;;;;;;;;;;;;17.18;48.36;101182.66;5077233;28;2307;-55
2022/10/19 05:04:34;;;;;;;;;;;;;;;16.98;47.42;101180.63;5078046;28;1166;-57
2022/10/19 05:07:00;;;;;;;;;;;;;;;16.79;46.77;101184.88;5078384;28;1107;-57
2022/10/19 05:09:25;;;;;;;;;;;;;;;17.45;48.21;101181.69;5078465;28;1173;-56
2022/10/19 05:11:51;;;;;;;;;;;;;;;16.90;48.02;101181.13;5078462;28;1902;-55
2022/10/19 05:14:16;;;;;;;;;;;;;;;17.19;47.86;101178.81;5078559;28;1138;-55
2022/10/19 05:16:41;;;;;;;;;;;;;;;17.42;47.99;101182.22;5077682;28;936;-55
2022/10/19 05:19:10;;;;;;;;;;;;;;;16.94;47.72;101182.25;5078286;28;949;-55
2022/10/19 05:21:35;;;;;;;;;;;;;;;16.80;46.85;101187.34;5076706;28;1201;-55
2022/10/19 05:24:01;;;;;;;;;;;;;;;17.86;47.37;101191.97;5077678;28;1110;-55
2022/10/19 05:26:26;;;;;;;;;;;;;;;17.07;48.27;101190.03;5063470;28;1134;-54
2022/10/19 05:28:55;;;;;;;;;;;;;;;16.83;47.29;101188.75;5068558;28;948;-53
2022/10/19 05:31:21;;;;;;;;;;;;;;;17.55;47.90;101191.88;5076712;28;2402;-57
2022/10/19 05:33:47;;;;;;;;;;;;;;;16.96;48.10;101196.56;5077946;28;1158;-57
2022/10/19 05:36:13;;;;;;;;;;;;;;;17.69;46.78;101190.25;5067717;28;1111;-58
2022/10/19 05:38:38;;;;;;;;;;;;;;;17.65;46.97;101188.34;5039979;28;1178;-57
2022/10/19 05:41:04;;;;;;;;;;;;;;;17.22;48.15;101192.03;5065891;28;1088;-57
2022/10/19 05:43:29;;;;;;;;;;;;;;;16.99;48.92;101185.03;5078065;28;1178;-57
2022/10/19 05:45:55;;;;;;;;;;;;;;;16.87;49.52;101192.63;5063658;28;1056;-56
2022/10/19 05:48:20;;;;;;;;;;;;;;;16.72;49.72;101191.44;5077441;28;1146;-56
2022/10/19 05:50:53;;;;;;;;;;;;;;;16.59;50.21;101189.97;5077253;28;1981;-60
2022/10/19 05:53:18;;;;;;;;;;;;;;;16.51;50.46;101186.88;5068790;28;1143;-61
2022/10/19 05:55:44;;;;;;;;;;;;;;;16.35;50.83;101186.75;5078099;28;1134;-58
2022/10/19 05:58:09;;;;;;;;;;;;;;;16.30;51.05;101200.47;5077647;28;1169;-57
2022/10/19 06:00:34;;;;;;;;;;;;;;;16.23;51.32;101194.38;5077441;28;1116;-57
2022/10/19 06:03:00;;;;;;;;;;;;;;;16.15;51.39;101190.16;5067242;28;2642;-56
2022/10/19 06:05:25;;;;;;;;;;;;;;;16.07;51.49;101194.22;5077635;28;1126;-56
2022/10/19 06:07:51;;;;;;;;;;;;;;;15.98;51.69;101195.78;5076992;28;1229;-55
2022/10/19 06:10:16;;;;;;;;;;;;;;;15.94;51.74;101208.34;5077294;28;1967;-53
2022/10/19 06:12:42;;;;;;;;;;;;;;;17.28;49.02;101201.13;5077198;28;1082;-55
2022/10/19 06:15:07;;;;;;;;;;;;;;;16.95;49.42;101200.41;5075322;28;1135;-54
2022/10/19 06:17:33;;;;;;;;;;;;;;;16.43;51.21;101197.25;5071178;28;1159;-55
2022/10/19 06:19:58;;;;;;;;;;;;;;;16.27;51.41;101200.97;5077507;28;1141;-55
2022/10/19 06:22:23;;;;;;;;;;;;;;;16.14;51.74;101198.66;5077053;28;1303;-54
2022/10/19 06:24:49;;;;;;;;;;;;;;;16.01;52.20;101197.97;5076919;28;1087;-54
2022/10/19 06:27:15;;;;;;;;;;;;;;;16.17;51.90;101203.63;5076711;28;1139;-54
2022/10/19 06:29:40;;;;;;;;;;;;;;;17.69;48.20;101204.00;5058574;28;1170;-54
2022/10/19 06:32:06;;;;;;;;;;;;;;;16.75;50.52;101192.84;5075337;28;2695;-54
2022/10/19 06:34:31;;;;;;;;;;;;;;;16.41;51.18;101193.97;5076551;28;1110;-54
2022/10/19 06:36:57;;;;;;;;;;;;;;;16.20;51.91;101195.72;5076522;28;1456;-54
2022/10/19 06:39:22;;;;;;;;;;;;;;;16.07;52.11;101194.22;5074218;28;1382;-56
2022/10/19 06:41:47;;;;;;;;;;;;;;;17.49;48.96;101192.94;5071007;28;1162;-54
2022/10/19 06:44:18;;;;;;;;;;;;;;;17.04;49.75;101190.56;5056682;28;1056;-55
2022/10/19 06:46:44;;;;;;;;;;;;;;;16.54;51.10;101189.13;5056415;28;1114;-54
2022/10/19 06:49:10;;;;;;;;;;;;;;;16.31;51.76;101180.13;5060870;28;1166;-57
2022/10/19 06:51:35;;;;;;;;;;;;;;;16.17;52.04;101176.19;5058339;28;1913;-56
2022/10/19 06:54:01;;;;;;;;;;;;;;;16.04;52.35;101181.00;5058516;28;1158;-57
2022/10/19 06:56:26;;;;;;;;;;;;;;;17.41;49.26;101175.06;5075915;28;1186;-55
2022/10/19 06:58:52;;;;;;;;;;;;;;;16.90;50.51;101170.13;5075754;28;1238;-57
2022/10/19 07:01:17;;;;;;;;;;;;;;;16.43;51.71;101172.56;5073581;28;2392;-57
2022/10/19 07:03:43;;;;;;;;;;;;;;;16.23;52.33;101169.66;5059539;28;1084;-56
2022/10/19 07:06:09;;;;;;;;;;;;;;;16.82;50.97;101178.88;5076796;28;1142;-57
2022/10/19 07:08:34;;;;;;;;;;;;;;;17.65;48.47;101180.91;5076076;28;1194;-57
2022/10/19 07:11:01;;;;;;;;;;;;;;;16.75;51.21;101174.44;5058244;28;2035;-57
2022/10/19 07:13:26;;;;;;;;;;;;;;;16.45;51.86;101171.47;5056283;28;1209;-56
2022/10/19 07:15:56;;;;;;;;;;;;;;;16.25;52.41;101165.53;5056351;28;1255;-57
2022/10/19 07:18:21;;;;;;;;;;;;;;;16.28;52.39;101175.19;5076094;28;1486;-57
2022/10/19 07:20:54;;;;;;;;;;;;;;;17.72;48.87;101180.66;5076341;28;1193;-58
2022/10/19 07:23:19;;;;;;;;;;;;;;;16.79;51.26;101173.88;5076388;28;1118;-58
2022/10/19 07:25:45;;;;;;;;;;;;;;;16.47;51.92;101170.13;5076079;28;1133;-58
2022/10/19 07:28:10;;;;;;;;;;;;;;;16.28;52.28;101163.38;5075447;28;1107;-58
2022/10/19 07:30:37;;;;;;;;;;;;;;;16.13;52.44;101150.34;5075454;28;1902;-56
2022/10/19 07:33:03;;;;;;;;;;;;;;;16.92;51.34;101151.50;5068514;28;2515;-55
2022/10/19 07:35:29;;;;;;;;;;;;;;;17.08;50.41;101155.97;5073976;28;1142;-56
2022/10/19 07:37:54;;;;;;;;;;;;;;;16.51;52.16;101148.44;5076228;28;1209;-58
2022/10/19 07:40:20;;;;;;;;;;;;;;;16.25;52.48;101143.59;5075596;28;1158;-57
2022/10/19 07:42:45;;;;;;;;;;;;;;;16.14;52.89;101141.84;5076024;28;1118;-55
2022/10/19 07:45:11;;;;;;;;;;;;;;;17.38;50.11;101148.13;5075708;28;1102;-55
2022/10/19 07:47:36;;;;;;;;;;;;;;;17.24;50.24;101147.78;5076710;28;1367;-55
2022/10/19 07:50:02;;;;;;;;;;;;;;;16.64;51.84;101145.25;5079656;28;1091;-56
2022/10/19 07:52:27;;;;;;;;;;;;;;;16.39;52.23;101138.47;5065744;28;1979;-55
2022/10/19 07:54:54;;;;;;;;;;;;;;;16.24;52.78;101127.41;5080511;28;1177;-55
2022/10/19 07:57:21;;;;;;;;;;;;;;;16.10;53.14;101126.19;5079637;28;1154;-57
2022/10/19 07:59:46;;;;;;;;;;;;;;;15.99;53.20;101128.88;5079540;28;1115;-58
2022/10/19 08:02:15;;;;;;;;;;;;;;;16.84;51.60;101128.06;5069606;28;2347;-60
2022/10/19 08:04:41;;;;;;;;;;;;;;;17.28;50.33;101126.91;5048616;28;991;-55
2022/10/19 08:07:06;;;;;;;;;;;;;;;16.52;52.40;101120.75;5079454;28;1090;-55
2022/10/19 08:09:32;;;;;;;;;;;;;;;16.27;53.00;101109.59;5079068;28;1225;-56
2022/10/19 08:11:57;;;;;;;;;;;;;;;16.16;53.09;101116.91;5078625;28;1898;-53
2022/10/19 08:14:23;;;;;;;;;;;;;;;16.90;51.46;101110.56;5068763;28;1186;-54
2022/10/19 08:16:48;;;;;;;;;;;;;;;17.17;50.70;101109.56;5066695;28;1281;-55
2022/10/19 08:19:14;;;;;;;;;;;;;;;16.61;52.01;101107.34;5065277;28;1233;-54
2022/10/19 08:21:41;;;;;;;;;;;;;;;16.34;52.65;101102.78;5073819;28;1139;-55
2022/10/19 08:24:07;;;;;;;;;;;;;;;16.25;52.91;101101.63;5079036;28;1130;-55
2022/10/19 08:26:34;;;;;;;;;;;;;;;17.35;50.58;101094.50;5079233;28;1126;-55
2022/10/19 08:29:00;;;;;;;;;;;;;;;17.13;50.80;101097.44;5078370;28;1182;-55
2022/10/19 08:31:26;;;;;;;;;;;;;;;16.64;52.27;101098.56;5075291;28;2373;-53
2022/10/19 08:33:51;;;;;;;;;;;;;;;16.45;52.63;101087.19;5076061;28;1092;-54
2022/10/19 08:36:18;;;;;;;;;;;;;;;16.24;53.03;101089.81;5067315;28;1246;-56
2022/10/19 08:38:44;;;;;;;;;;;;;;;16.16;53.36;101083.97;5076124;28;1099;-56
2022/10/19 08:41:28;;;;;;;;;;;;;;;17.13;51.21;101083.72;5078851;28;869;-55
2022/10/19 08:44:06;;;;;;;;;;;;;;;17.28;50.39;101077.44;5078142;28;1174;-57
2022/10/19 08:46:44;;;;;;;;;;;;;;;16.69;52.05;101076.66;5078991;28;1118;-55
2022/10/19 08:49:10;;;;;;;;;;;;;;;16.43;52.67;101072.94;5077710;28;1253;-56
2022/10/19 08:51:37;;;;;;;;;;;;;;;16.28;53.11;101070.09;5060622;28;1983;-55
2022/10/19 08:54:03;;;;;;;;;;;;;;;16.92;51.77;101071.81;5060184;28;1222;-55
2022/10/19 08:56:29;;;;;;;;;;;;;;;17.46;50.24;101059.63;5078504;28;1297;-56
2022/10/19 08:59:01;;;;;;;;;;;;;;;16.75;52.23;101061.84;5059633;28;1273;-56
2022/10/19 09:01:38;;;;;;;;;;;;;;;16.53;53.00;101052.94;5075490;28;2401;-56
2022/10/19 09:04:10;;;;;;;;;;;;;;;16.36;53.00;101051.19;5060488;28;1238;-57
2022/10/19 09:06:59;;;;;;;;;;;;;;;16.28;53.41;101051.69;5059968;28;1004;-57
2022/10/19 09:09:24;;;;;;;;;;;;;;;17.33;51.00;101052.69;5068518;28;1223;-54
2022/10/19 09:11:50;;;;;;;;;;;;;;;17.12;51.45;101045.53;5078148;28;1917;-55
2022/10/19 09:14:24;;;;;;;;;;;;;;;16.64;52.62;101051.91;5069337;28;1256;-55
2022/10/19 09:16:50;;;;;;;;;;;;;;;16.46;53.32;101049.63;5043283;28;1172;-55
2022/10/19 09:19:24;;;;;;;;;;;;;;;16.30;53.50;101046.78;5066445;28;1281;-56
2022/10/19 09:22:10;;;;;;;;;;;;;;;16.22;53.55;101039.03;5057846;28;1203;-58
2022/10/19 09:24:51;;;;;;;;;;;;;;;16.43;53.37;101032.56;5076233;28;1231;-57
2022/10/19 09:27:23;;;;;;;;;;;;;;;17.67;50.03;101024.72;5078190;28;1146;-56
2022/10/19 09:29:50;;;;;;;;;;;;;;;16.81;52.50;101020.66;5077555;28;1134;-60
2022/10/19 09:32:20;;;;;;;;;;;;;;;16.50;53.07;101004.88;5075129;28;2281;-56
2022/10/19 09:34:49;;;;;;;;;;;;;;;16.36;53.54;101012.78;5047865;28;1214;-61
2022/10/19 09:37:14;;;;;;;;;;;;;;;16.24;53.67;101009.41;5058797;28;1139;-62
2022/10/19 09:39:40;;;;;;;;;;;;;;;16.16;53.79;100996.19;5060189;28;1111;-60
2022/10/19 09:42:14;;;;;;;;;;;;;;;16.55;53.11;100999.44;5077429;28;1138;-61
2022/10/19 09:44:40;;;;;;;;;;;;;;;17.48;50.79;100987.88;5077810;28;1114;-61
2022/10/19 09:47:16;;;;;;;;;;;;;;;16.72;52.85;100988.22;5059748;28;1202;-60
2022/10/19 09:49:42;;;;;;;;;;;;;;;16.48;53.31;100985.13;5059877;28;1119;-58
2022/10/19 09:52:23;;;;;;;;;;;;;;;16.31;54.00;100987.22;5062352;28;1914;-58
2022/10/19 09:54:58;;;;;;;;;;;;;;;16.17;53.86;100978.66;5066320;28;908;-58
2022/10/19 09:57:24;;;;;;;;;;;;;;;16.10;54.25;100967.91;5063218;28;1126;-58
2022/10/19 09:59:50;;;;;;;;;;;;;;;16.02;54.26;100973.88;5077482;28;1094;-59
2022/10/19 10:02:19;;;;;;;;;;;;;;;16.46;53.48;100964.53;5067285;28;2237;-61
2022/10/19 10:04:45;;;;;;;;;;;;;;;17.69;50.48;100966.69;5076762;28;1131;-60
2022/10/19 10:07:17;;;;;;;;;;;;;;;16.79;52.74;100965.16;5077233;28;1103;-60
2022/10/19 10:09:43;;;;;;;;;;;;;;;16.45;53.75;100960.13;5077627;28;1197;-60
2022/10/19 10:12:12;;;;;;;;;;;;;;;16.38;53.83;100950.22;5077010;28;1905;-62
2022/10/19 10:14:40;;;;;;;;;;;;;;;16.23;53.96;100941.94;5068639;28;1166;-58
2022/10/19 10:17:07;;;;;;;;;;;;;;;16.33;53.87;100941.97;5047946;28;808;-56
2022/10/19 10:19:32;;;;;;;;;;;;;;;17.74;50.25;100931.75;5056450;28;1222;-57
2022/10/19 10:21:58;;;;;;;;;;;;;;;16.87;52.53;100923.44;5069916;28;1185;-56
2022/10/19 10:24:27;;;;;;;;;;;;;;;16.54;53.35;100931.06;5075672;28;1158;-57
2022/10/19 10:26:53;;;;;;;;;;;;;;;16.40;53.70;100928.81;5064551;28;1120;-57
2022/10/19 10:29:20;;;;;;;;;;;;;;;16.26;54.14;100913.94;5076627;28;1201;-57
2022/10/19 10:31:46;;;;;;;;;;;;;;;16.20;54.17;100921.34;5071132;28;2374;-57
2022/10/19 10:34:15;;;;;;;;;;;;;;;16.11;54.33;100920.19;5046855;28;1115;-57
2022/10/19 10:36:41;;;;;;;;;;;;;;;17.66;50.55;100918.56;5059164;28;1198;-56
2022/10/19 10:39:06;;;;;;;;;;;;;;;16.85;52.68;100910.00;5075499;28;1127;-56
2022/10/19 10:41:38;;;;;;;;;;;;;;;16.52;53.50;100914.03;5055288;28;1135;-55
2022/10/19 10:44:07;;;;;;;;;;;;;;;16.38;53.83;100917.28;5057352;28;1135;-55
2022/10/19 10:46:33;;;;;;;;;;;;;;;16.23;54.10;100909.00;5068357;28;1083;-56
2022/10/19 10:49:00;;;;;;;;;;;;;;;16.14;54.35;100907.84;5059642;28;1174;-55
2022/10/19 10:51:39;;;;;;;;;;;;;;;17.36;51.56;100912.00;5056728;28;1979;-57
2022/10/19 10:54:05;;;;;;;;;;;;;;;16.97;52.33;100901.53;5050867;28;1167;-57
2022/10/19 10:56:32;;;;;;;;;;;;;;;16.60;53.19;100888.81;5046953;28;1201;-57
2022/10/19 10:59:03;;;;;;;;;;;;;;;16.39;53.98;100888.72;5070085;28;1341;-56
2022/10/19 11:01:33;;;;;;;;;;;;;;;16.30;53.98;100875.81;5038291;28;1874;-57
2022/10/19 11:04:00;;;;;;;;;;;;;;;16.15;54.21;100882.06;5072896;28;1171;-55
2022/10/19 11:06:26;;;;;;;;;;;;;;;17.01;52.39;100874.34;5075334;28;1297;-57
2022/10/19 11:09:02;;;;;;;;;;;;;;;17.44;51.24;100872.13;5075821;28;1186;-55
2022/10/19 11:11:41;;;;;;;;;;;;;;;16.74;53.04;100856.97;5058421;28;1910;-56
2022/10/19 11:14:06;;;;;;;;;;;;;;;16.51;53.37;100854.72;5061744;28;1198;-56
2022/10/19 11:16:39;;;;;;;;;;;;;;;16.36;53.71;100858.28;5076112;28;1119;-58
2022/10/19 11:19:07;;;;;;;;;;;;;;;16.22;54.15;100846.97;5071203;28;933;-55
2022/10/19 11:21:35;;;;;;;;;;;;;;;16.58;53.66;100850.63;5076007;28;1245;-55
2022/10/19 11:24:06;;;;;;;;;;;;;;;17.62;50.79;100845.97;5055313;28;1150;-55
2022/10/19 11:26:50;;;;;;;;;;;;;;;16.81;52.88;100845.72;5069052;28;1189;-55
2022/10/19 11:29:28;;;;;;;;;;;;;;;16.51;53.64;100844.59;5060593;28;1092;-56
2022/10/19 11:31:54;;;;;;;;;;;;;;;16.37;53.78;100844.28;5066563;28;2507;-55
2022/10/19 11:34:25;;;;;;;;;;;;;;;16.26;53.92;100845.34;5073195;28;1162;-56
2022/10/19 11:36:53;;;;;;;;;;;;;;;16.20;54.18;100840.91;5075496;28;1201;-56
2022/10/19 11:39:29;;;;;;;;;;;;;;;16.10;54.04;100827.19;5076132;28;1194;-56
2022/10/19 11:41:54;;;;;;;;;;;;;;;16.04;54.27;100838.13;5074301;28;1242;-57
2022/10/19 11:44:35;;;;;;;;;;;;;;;17.49;51.07;100830.03;5075671;28;1253;-55
2022/10/19 11:47:04;;;;;;;;;;;;;;;16.87;52.48;100830.91;5050832;28;1107;-55
2022/10/19 11:49:32;;;;;;;;;;;;;;;16.56;53.32;100825.41;5055544;28;1135;-55
2022/10/19 11:52:07;;;;;;;;;;;;;;;16.38;53.73;100821.25;5055823;28;1976;-55
2022/10/19 11:54:42;;;;;;;;;;;;;;;16.23;53.95;100822.03;5064051;28;1194;-56
2022/10/19 11:57:27;;;;;;;;;;;;;;;16.13;54.24;100829.38;5069543;28;1100;-60
2022/10/19 12:00:07;;;;;;;;;;;;;;;16.30;53.96;100823.66;5062828;28;1577;-59
2022/10/19 12:02:43;;;;;;;;;;;;;;;17.65;50.45;100808.84;5048178;28;1805;-58
2022/10/19 12:05:20;;;;;;;;;;;;;;;16.77;52.71;100819.91;5075796;28;1166;-57
2022/10/19 12:07:55;;;;;;;;;;;;;;;16.52;53.28;100816.06;5075361;28;1083;-57
2022/10/19 12:10:28;;;;;;;;;;;;;;;16.35;53.74;100807.22;5075647;28;1111;-60
2022/10/19 12:13:12;;;;;;;;;;;;;;;16.21;53.84;100804.16;5057912;28;1151;-59
2022/10/19 12:15:42;;;;;;;;;;;;;;;16.11;54.19;100802.22;5057994;28;1110;-60
2022/10/19 12:18:15;;;;;;;;;;;;;;;16.06;54.02;100797.56;5071442;28;1162;-57
2022/10/19 12:20:47;;;;;;;;;;;;;;;15.96;54.30;100802.16;5052500;28;1269;-55
2022/10/19 12:23:20;;;;;;;;;;;;;;;17.48;51.12;100798.19;5057204;28;1250;-58
2022/10/19 12:25:46;;;;;;;;;;;;;;;16.84;52.37;100789.44;5075675;28;1206;-57
2022/10/19 12:28:16;;;;;;;;;;;;;;;16.47;53.27;100798.75;5073682;28;1194;-57
2022/10/19 12:30:41;;;;;;;;;;;;;;;16.30;53.91;100788.00;5050261;28;1973;-56
2022/10/19 12:33:06;;;;;;;;;;;;;;;16.23;53.93;100805.56;5053033;28;1813;-57
2022/10/19 12:35:51;;;;;;;;;;;;;;;16.12;54.17;100783.84;5078463;28;1194;-57
2022/10/19 12:38:35;;;;;;;;;;;;;;;16.05;54.35;100782.19;5072622;28;1246;-60
2022/10/19 12:41:19;;;;;;;;;;;;;;;17.15;52.09;100781.19;5059160;28;1162;-62
2022/10/19 12:43:51;;;;;;;;;;;;;;;16.90;52.50;100780.09;5061132;28;1185;-57
2022/10/19 12:46:22;;;;;;;;;;;;;;;16.46;53.70;100772.41;5079240;28;1270;-63
2022/10/19 12:49:11;;;;;;;;;;;;;;;16.34;54.00;100768.00;5064426;28;1068;-62
2022/10/19 12:51:45;;;;;;;;;;;;;;;16.21;54.26;100779.47;5049813;28;1911;-58